Time;durP1;ratioP1;P1;durP2;ratioP2;P2;SDS_P1;SDS_P2;PMS_P1;PMS_P2;Temp;Humidity;BMP_temperature;BMP_pressure;BME280_temperature;BME280_humidity;BME280_pressure;Samples;Min_cycle;Max_cycle;Signal;HPM_P1;HPM_P2
2022/01/26 00:00:40;;;;;;;19.43;10.30;;;4.50;99.90;;;;;;5027607;28;20289;-80
2022/01/26 00:06:20;;;;;;;20.03;10.10;;;4.40;99.90;;;;;;4984621;28;20232;-77
2022/01/26 00:08:46;;;;;;;20.60;9.77;;;4.40;99.90;;;;;;4989933;28;20197;-76
2022/01/26 00:11:12;;;;;;;19.83;9.50;;;4.40;99.90;;;;;;5034518;28;20201;-78
2022/01/26 00:13:37;;;;;;;21.60;9.97;;;4.30;99.90;;;;;;5036224;28;20194;-79
2022/01/26 00:16:07;;;;;;;19.00;9.13;;;4.30;99.90;;;;;;5032423;28;20178;-78
2022/01/26 00:18:36;;;;;;;18.40;10.50;;;4.30;99.90;;;;;;5022896;28;20236;-78
2022/01/26 00:21:09;;;;;;;18.50;10.13;;;4.30;99.90;;;;;;5026561;28;20260;-80
2022/01/26 00:29:09;;;;;;;19.80;10.43;;;4.30;99.90;;;;;;5029753;28;20266;-80
2022/01/26 00:40:12;;;;;;;18.17;8.87;;;4.30;99.90;;;;;;5031940;28;20209;-75
2022/01/26 00:42:42;;;;;;;17.67;9.20;;;4.30;99.90;;;;;;5031349;28;20252;-77
2022/01/26 00:45:09;;;;;;;18.33;9.50;;;4.30;99.90;;;;;;5031940;28;20235;-78
2022/01/26 00:47:37;;;;;;;18.63;9.20;;;4.30;99.90;;;;;;5028195;28;20224;-77
2022/01/26 00:50:07;;;;;;;18.37;9.40;;;4.30;99.90;;;;;;5030827;28;20200;-77
2022/01/26 00:52:41;;;;;;;17.33;9.60;;;4.30;99.90;;;;;;5042286;28;20340;-79
2022/01/26 00:55:15;;;;;;;18.00;9.83;;;4.40;99.90;;;;;;5030241;28;20196;-68
2022/01/26 00:57:42;;;;;;;18.03;9.23;;;4.40;99.90;;;;;;5032044;28;20205;-78
2022/01/26 01:00:15;;;;;;;16.83;9.40;;;4.40;99.90;;;;;;5031376;28;20205;-78
2022/01/26 01:02:43;;;;;;;18.53;9.80;;;4.40;99.90;;;;;;5031251;28;20174;-76
2022/01/26 01:05:28;;;;;;;18.10;10.07;;;4.40;99.90;;;;;;5024280;28;20340;-74
2022/01/26 01:08:02;;;;;;;17.70;9.57;;;4.40;99.90;;;;;;5036415;28;20281;-76
2022/01/26 01:10:30;;;;;;;17.47;8.90;;;4.40;99.90;;;;;;5032257;28;20312;-73
2022/01/26 01:12:58;;;;;;;15.47;9.17;;;4.40;99.90;;;;;;5034891;28;20213;-76
2022/01/26 01:15:26;;;;;;;15.70;8.70;;;4.40;99.90;;;;;;5035733;28;20182;-77
2022/01/26 01:18:08;;;;;;;15.83;9.20;;;4.40;99.90;;;;;;5044917;28;20183;-78
2022/01/26 01:31:43;;;;;;;14.50;8.97;;;4.50;99.90;;;;;;5039325;28;20462;-75
2022/01/26 01:34:10;;;;;;;14.30;9.30;;;4.60;99.90;;;;;;5027540;28;20211;-76
2022/01/26 01:36:39;;;;;;;15.67;8.97;;;4.60;99.90;;;;;;5035933;28;20174;-78
2022/01/26 01:39:11;;;;;;;15.93;9.33;;;4.60;99.90;;;;;;5032625;28;20205;-77
2022/01/26 01:41:41;;;;;;;17.33;10.00;;;4.60;99.90;;;;;;5027827;28;20182;-79
2022/01/26 01:44:13;;;;;;;15.37;9.33;;;4.60;99.90;;;;;;5036007;28;20287;-78
2022/01/26 01:46:42;;;;;;;17.57;10.07;;;4.60;99.90;;;;;;5034833;28;20178;-68
2022/01/26 01:49:10;;;;;;;16.97;9.50;;;4.60;99.90;;;;;;5033588;28;20177;-76
2022/01/26 01:51:40;;;;;;;16.03;9.37;;;4.70;99.90;;;;;;5033634;28;20182;-79
2022/01/26 01:54:15;;;;;;;16.73;10.13;;;4.70;99.90;;;;;;5025945;28;20187;-74
2022/01/26 01:56:52;;;;;;;16.53;9.67;;;4.70;99.90;;;;;;5037241;28;20207;-78
2022/01/26 01:59:18;;;;;;;17.97;10.37;;;4.70;99.90;;;;;;5036232;28;20212;-79
2022/01/26 02:01:45;;;;;;;16.23;10.00;;;4.70;99.90;;;;;;5034163;28;20186;-78
2022/01/26 02:04:13;;;;;;;18.33;10.43;;;4.70;99.90;;;;;;5033059;28;20221;-79
2022/01/26 02:06:41;;;;;;;17.70;10.27;;;4.70;99.90;;;;;;5033945;28;20178;-74
2022/01/26 02:09:06;;;;;;;19.40;10.97;;;4.70;99.90;;;;;;5037122;28;20177;-75
2022/01/26 02:11:32;;;;;;;15.90;9.67;;;4.80;99.90;;;;;;5038868;28;20208;-79
2022/01/26 02:14:09;;;;;;;18.10;9.93;;;4.80;99.90;;;;;;5035696;28;20183;-78
2022/01/26 02:56:56;;;;;;;17.23;11.03;;;4.50;99.90;;;;;;5036265;28;20170;-77
2022/01/26 03:01:58;;;;;;;19.77;11.53;;;4.50;99.90;;;;;;5033785;28;20298;-74
2022/01/26 03:07:02;;;;;;;22.00;13.10;;;4.50;99.90;;;;;;5034894;28;20170;-74
2022/01/26 03:09:35;;;;;;;22.50;12.83;;;4.50;99.90;;;;;;5031522;28;20189;-77
2022/01/26 03:12:03;;;;;;;20.33;12.13;;;4.50;99.90;;;;;;5031078;28;20198;-76
2022/01/26 03:17:14;;;;;;;20.93;12.47;;;4.60;99.90;;;;;;5032834;28;20186;-73
2022/01/26 03:19:52;;;;;;;19.77;11.50;;;4.60;99.90;;;;;;5031647;28;20206;-74
2022/01/26 03:30:27;;;;;;;21.67;12.07;;;4.70;99.90;;;;;;5030541;28;20301;-77
2022/01/26 03:35:58;;;;;;;26.60;14.87;;;4.70;99.90;;;;;;4990292;28;20260;-76
2022/01/26 03:41:01;;;;;;;29.50;15.00;;;4.70;99.90;;;;;;5025046;28;20198;-74
2022/01/26 03:43:26;;;;;;;26.43;15.23;;;4.70;99.90;;;;;;5032351;28;20170;-76
2022/01/26 03:45:52;;;;;;;26.77;15.07;;;4.70;99.90;;;;;;5030416;28;20202;-76
2022/01/26 03:48:18;;;;;;;32.77;17.33;;;4.70;99.90;;;;;;5035406;28;20324;-75
2022/01/26 03:50:45;;;;;;;27.40;15.60;;;4.70;99.90;;;;;;5034572;28;20315;-77
2022/01/26 03:53:13;;;;;;;31.53;15.67;;;4.70;99.90;;;;;;5034297;28;20214;-76
2022/01/26 03:55:44;;;;;;;24.90;14.80;;;4.70;99.90;;;;;;5035216;28;20212;-78
2022/01/26 03:58:10;;;;;;;28.57;14.90;;;4.70;99.90;;;;;;5033907;28;20257;-75
2022/01/26 04:00:36;;;;;;;27.97;15.80;;;4.70;99.90;;;;;;5034771;28;20221;-77
2022/01/26 04:03:03;;;;;;;27.40;15.67;;;4.70;99.90;;;;;;5029909;28;20182;-65
2022/01/26 04:05:29;;;;;;;31.10;15.70;;;4.70;99.90;;;;;;5033885;28;20178;-76
2022/01/26 04:08:00;;;;;;;27.90;14.93;;;4.80;99.90;;;;;;5032378;28;20186;-77
2022/01/26 04:13:05;;;;;;;29.23;15.57;;;4.80;99.90;;;;;;5029324;28;20197;-70
2022/01/26 04:15:35;;;;;;;27.77;15.07;;;4.80;99.90;;;;;;5033917;28;20185;-72
2022/01/26 04:18:02;;;;;;;25.43;14.80;;;4.80;99.90;;;;;;5026062;28;20198;-72
2022/01/26 04:20:33;;;;;;;27.63;15.10;;;4.80;99.90;;;;;;5038368;28;20206;-76
2022/01/26 04:26:02;;;;;;;24.97;14.17;;;4.80;99.90;;;;;;4972386;28;20289;-78
2022/01/26 04:28:38;;;;;;;28.50;14.97;;;4.80;99.90;;;;;;5012446;28;20213;-76
2022/01/26 04:31:06;;;;;;;28.90;14.97;;;4.80;99.90;;;;;;5031191;28;20178;-77
2022/01/26 04:33:33;;;;;;;27.33;14.23;;;4.80;99.90;;;;;;5032896;28;20273;-78
2022/01/26 04:36:05;;;;;;;26.23;15.07;;;4.80;99.90;;;;;;5031986;28;20194;-77
2022/01/26 04:38:40;;;;;;;26.90;14.40;;;4.80;99.90;;;;;;5034304;28;20194;-69
2022/01/26 04:41:32;;;;;;;28.40;14.93;;;4.80;99.90;;;;;;5035834;28;20255;-77
2022/01/26 04:43:56;;;;;;;28.40;15.33;;;4.90;99.90;;;;;;5029787;28;20182;-74
2022/01/26 04:46:21;;;;;;;32.30;16.17;;;4.90;99.90;;;;;;5032288;28;20178;-76
2022/01/26 04:48:47;;;;;;;28.20;15.30;;;4.90;99.90;;;;;;5028758;28;20252;-76
2022/01/26 04:51:17;;;;;;;24.43;14.30;;;4.80;99.90;;;;;;5031493;28;20189;-78
2022/01/26 04:53:43;;;;;;;31.87;15.77;;;4.80;99.90;;;;;;5026028;28;20239;-77
2022/01/26 04:56:14;;;;;;;31.00;15.60;;;4.80;99.90;;;;;;5029017;28;20202;-74
2022/01/26 04:58:41;;;;;;;31.27;15.13;;;4.80;99.90;;;;;;5031572;28;20173;-77
2022/01/26 05:01:09;;;;;;;29.17;15.37;;;4.80;99.90;;;;;;5028952;28;20179;-68
2022/01/26 05:03:34;;;;;;;29.87;15.03;;;4.80;99.90;;;;;;5032734;28;20182;-77
2022/01/26 05:06:02;;;;;;;31.10;15.57;;;4.80;99.90;;;;;;5030339;28;20204;-75
2022/01/26 05:08:30;;;;;;;31.27;15.90;;;4.80;99.90;;;;;;5032478;28;20170;-75
2022/01/26 05:10:56;;;;;;;26.60;14.53;;;4.80;99.90;;;;;;5035510;28;20197;-67
2022/01/26 05:13:24;;;;;;;33.40;16.57;;;4.80;99.90;;;;;;5039235;28;20476;-69
2022/01/26 05:15:49;;;;;;;29.00;16.07;;;4.80;99.90;;;;;;5026787;28;20332;-77
2022/01/26 05:18:15;;;;;;;30.50;15.90;;;4.80;99.90;;;;;;5030878;28;20296;-74
2022/01/26 05:20:40;;;;;;;30.73;15.00;;;4.80;99.90;;;;;;5030464;28;20210;-76
2022/01/26 05:23:09;;;;;;;32.87;16.40;;;4.80;99.90;;;;;;5031332;28;20173;-73
2022/01/26 05:25:35;;;;;;;28.13;15.17;;;4.80;99.90;;;;;;5033852;28;20202;-78
2022/01/26 05:28:00;;;;;;;28.90;16.23;;;4.80;99.90;;;;;;5026619;28;20222;-75
2022/01/26 05:30:27;;;;;;;30.20;15.97;;;4.70;99.90;;;;;;5039578;28;20186;-78
2022/01/26 05:32:53;;;;;;;31.20;15.77;;;4.70;99.90;;;;;;5031514;28;20178;-76
2022/01/26 05:35:21;;;;;;;32.73;16.60;;;4.70;99.90;;;;;;5031006;28;20212;-72
2022/01/26 05:37:49;;;;;;;33.67;16.47;;;4.70;99.90;;;;;;5030180;28;20217;-77
2022/01/26 05:40:17;;;;;;;31.03;16.50;;;4.70;99.90;;;;;;5024185;28;20229;-76
2022/01/26 05:42:43;;;;;;;31.00;15.77;;;4.70;99.90;;;;;;5028773;28;20175;-77
2022/01/26 05:45:21;;;;;;;34.13;17.17;;;4.60;99.90;;;;;;5028873;28;20181;-75
2022/01/26 05:47:47;;;;;;;31.73;16.10;;;4.60;99.90;;;;;;5024343;28;20205;-78
2022/01/26 05:50:12;;;;;;;39.90;19.40;;;4.60;99.90;;;;;;5028713;28;20178;-76
2022/01/26 05:52:38;;;;;;;35.87;17.67;;;4.60;99.90;;;;;;5030378;28;20272;-77
2022/01/26 05:55:04;;;;;;;29.73;16.67;;;4.50;99.90;;;;;;5023912;28;20179;-74
2022/01/26 05:57:30;;;;;;;33.17;17.30;;;4.50;99.90;;;;;;5033123;28;20186;-77
2022/01/26 05:59:55;;;;;;;34.93;18.03;;;4.50;99.90;;;;;;5027978;28;20217;-77
2022/01/26 06:02:21;;;;;;;29.83;15.63;;;4.40;99.90;;;;;;5036515;28;20190;-80
2022/01/26 06:04:47;;;;;;;32.53;16.40;;;4.40;99.90;;;;;;5037504;28;20214;-79
2022/01/26 06:07:13;;;;;;;32.17;16.97;;;4.40;99.90;;;;;;5033588;28;20232;-79
2022/01/26 06:09:38;;;;;;;30.23;16.07;;;4.40;99.90;;;;;;5042924;28;20189;-79
2022/01/26 06:12:04;;;;;;;30.17;15.50;;;4.40;99.90;;;;;;5033349;28;20249;-72
2022/01/26 06:14:32;;;;;;;31.07;15.57;;;4.40;99.90;;;;;;5031849;28;20220;-76
2022/01/26 06:17:00;;;;;;;29.67;14.90;;;4.40;99.90;;;;;;5034324;28;20205;-81
2022/01/26 06:19:28;;;;;;;28.50;15.43;;;4.40;99.90;;;;;;5033293;28;20194;-77
2022/01/26 06:21:56;;;;;;;29.90;14.20;;;4.40;99.90;;;;;;5036428;28;20185;-78
2022/01/26 06:24:24;;;;;;;27.13;14.20;;;4.40;99.90;;;;;;5034198;28;20469;-74
2022/01/26 06:26:54;;;;;;;27.70;15.57;;;4.40;99.90;;;;;;5032389;28;20204;-76
2022/01/26 06:29:20;;;;;;;28.23;14.10;;;4.40;99.90;;;;;;5035282;28;20252;-80
2022/01/26 06:31:48;;;;;;;27.43;14.73;;;4.40;99.90;;;;;;5033376;28;20185;-80
2022/01/26 06:34:13;;;;;;;23.87;13.07;;;4.40;99.90;;;;;;5035861;28;20273;-76
2022/01/26 06:36:44;;;;;;;26.97;14.13;;;4.40;99.90;;;;;;5034066;28;20274;-79
2022/01/26 06:39:13;;;;;;;27.20;14.73;;;4.40;99.90;;;;;;5034027;28;20198;-80
2022/01/26 06:41:47;;;;;;;26.03;13.57;;;4.40;99.90;;;;;;5031560;28;20220;-73
2022/01/26 06:44:20;;;;;;;25.53;14.20;;;4.40;99.90;;;;;;5031820;28;20190;-75
2022/01/26 06:47:17;;;;;;;25.73;14.33;;;4.40;99.90;;;;;;5033163;28;20188;-74
2022/01/26 06:49:47;;;;;;;20.90;11.80;;;4.50;99.90;;;;;;5034464;28;20192;-72
2022/01/26 06:52:13;;;;;;;27.30;14.63;;;4.50;99.90;;;;;;5033382;28;20258;-72
2022/01/26 06:54:38;;;;;;;31.67;15.97;;;4.50;99.90;;;;;;5031683;28;20266;-78
2022/01/26 06:57:04;;;;;;;27.40;15.43;;;4.50;99.90;;;;;;5028290;28;20186;-81
2022/01/26 06:59:30;;;;;;;27.43;14.50;;;4.50;99.90;;;;;;5032658;28;20202;-75
2022/01/26 07:02:03;;;;;;;31.53;15.63;;;4.50;99.90;;;;;;5029890;28;20209;-80
2022/01/26 07:04:30;;;;;;;26.87;14.43;;;4.50;99.90;;;;;;5028035;28;20369;-77
2022/01/26 07:06:56;;;;;;;25.23;14.10;;;4.50;99.90;;;;;;5026027;28;20281;-78
2022/01/26 07:09:24;;;;;;;24.33;13.90;;;4.50;99.90;;;;;;5032096;28;20213;-71
2022/01/26 07:11:52;;;;;;;24.70;13.63;;;4.40;99.90;;;;;;5029548;28;20201;-81
2022/01/26 07:19:49;;;;;;;25.83;14.50;;;4.40;99.90;;;;;;5034981;28;20178;-79
2022/01/26 07:20:36;;;;;;;26.33;13.30;;;4.40;99.90;;;;;;5022990;28;20229;-78
2022/01/26 07:22:41;;;;;;;23.83;12.67;;;4.40;99.90;;;;;;5034642;28;20273;-72
2022/01/26 07:25:07;;;;;;;24.63;12.33;;;4.40;99.90;;;;;;5048316;28;20277;-77
2022/01/26 07:27:33;;;;;;;26.77;13.67;;;4.40;99.90;;;;;;5033471;28;20457;-77
2022/01/26 07:30:00;;;;;;;27.03;14.40;;;4.40;99.90;;;;;;5036018;28;20269;-75
2022/01/26 07:32:30;;;;;;;27.00;14.17;;;4.40;99.90;;;;;;5031147;28;20236;-75
2022/01/26 07:34:55;;;;;;;24.90;13.50;;;4.30;99.90;;;;;;5037567;28;20182;-80
2022/01/26 07:37:24;;;;;;;30.77;15.07;;;4.30;99.90;;;;;;5031096;28;20178;-78
2022/01/26 07:40:02;;;;;;;31.50;15.00;;;4.30;99.90;;;;;;5029356;28;20272;-79
2022/01/26 07:42:31;;;;;;;29.33;14.80;;;4.30;99.90;;;;;;5025735;28;20274;-81
2022/01/26 07:44:57;;;;;;;33.87;17.50;;;4.30;99.90;;;;;;5036161;28;20182;-76
2022/01/26 07:47:23;;;;;;;35.70;18.07;;;4.30;99.90;;;;;;5031936;28;20189;-77
2022/01/26 07:49:52;;;;;;;33.23;16.67;;;4.20;99.90;;;;;;5024682;28;20182;-77
2022/01/26 07:52:18;;;;;;;31.57;15.67;;;4.20;99.90;;;;;;5027044;28;20197;-76
2022/01/26 07:54:45;;;;;;;28.50;14.73;;;4.20;99.90;;;;;;5036156;28;20202;-77
2022/01/26 07:57:13;;;;;;;28.43;16.10;;;4.20;99.90;;;;;;5034004;28;20200;-77
2022/01/26 07:59:39;;;;;;;29.33;15.13;;;4.20;99.90;;;;;;5033151;28;20440;-80
2022/01/26 08:02:07;;;;;;;28.03;15.77;;;4.20;99.90;;;;;;5033914;28;20244;-82
2022/01/26 08:04:32;;;;;;;26.77;15.10;;;4.20;99.90;;;;;;5031549;28;20174;-82
2022/01/26 08:07:00;;;;;;;27.00;14.83;;;4.20;99.90;;;;;;5033825;28;20193;-79
2022/01/26 08:09:26;;;;;;;24.63;13.43;;;4.20;99.90;;;;;;5026942;28;20173;-88
2022/01/26 08:11:51;;;;;;;30.80;16.47;;;4.20;99.90;;;;;;5028358;28;20742;-74
2022/01/26 08:14:18;;;;;;;35.67;16.23;;;4.20;99.90;;;;;;5029498;28;20186;-77
2022/01/26 08:16:44;;;;;;;30.73;15.07;;;4.20;99.90;;;;;;5028234;28;20225;-78
2022/01/26 08:19:12;;;;;;;29.70;15.47;;;4.10;99.90;;;;;;5033012;28;20528;-76
2022/01/26 08:21:38;;;;;;;27.17;14.17;;;4.10;99.90;;;;;;5031951;28;20232;-77
2022/01/26 08:24:13;;;;;;;27.97;14.97;;;4.10;99.90;;;;;;5027233;28;20202;-76
2022/01/26 08:26:46;;;;;;;33.53;14.70;;;4.10;99.90;;;;;;5033598;28;20193;-74
2022/01/26 08:29:25;;;;;;;28.47;14.70;;;4.10;99.90;;;;;;5032001;28;20194;-78
2022/01/26 08:31:52;;;;;;;33.23;16.60;;;4.10;99.90;;;;;;5026443;28;20183;-76
2022/01/26 08:34:18;;;;;;;28.50;15.17;;;4.10;99.90;;;;;;5031118;28;20193;-81
2022/01/26 08:36:44;;;;;;;26.67;14.70;;;4.10;99.90;;;;;;5027489;28;20186;-78
2022/01/26 08:39:10;;;;;;;30.23;15.37;;;4.10;99.90;;;;;;5030145;28;20213;-79
2022/01/26 08:41:35;;;;;;;33.13;17.17;;;4.10;99.90;;;;;;5042408;28;20200;-84
2022/01/26 08:44:02;;;;;;;36.63;17.30;;;4.10;99.90;;;;;;5030982;28;20189;-83
2022/01/26 08:46:29;;;;;;;37.00;17.70;;;4.10;99.90;;;;;;5027705;28;20208;-80
2022/01/26 08:48:56;;;;;;;34.67;16.73;;;4.10;99.90;;;;;;5032767;28;20174;-78
2022/01/26 08:51:21;;;;;;;35.00;15.93;;;4.10;99.90;;;;;;5022342;28;20205;-80
2022/01/26 08:53:47;;;;;;;36.73;17.30;;;4.10;99.90;;;;;;5028259;28;20261;-75
2022/01/26 08:56:15;;;;;;;34.60;16.77;;;4.10;99.90;;;;;;5029447;28;20220;-80
2022/01/26 08:58:43;;;;;;;34.80;16.10;;;4.10;99.90;;;;;;5026997;28;20243;-77
2022/01/26 09:01:09;;;;;;;35.10;16.07;;;4.10;99.90;;;;;;5024335;28;20233;-80
2022/01/26 09:03:39;;;;;;;32.43;15.40;;;4.10;99.90;;;;;;5031484;28;20365;-85
2022/01/26 09:06:06;;;;;;;32.00;15.30;;;4.10;99.90;;;;;;5029590;28;20206;-78
2022/01/26 09:08:33;;;;;;;33.10;16.33;;;4.10;99.90;;;;;;5027436;28;20248;-82
2022/01/26 09:11:01;;;;;;;33.97;16.63;;;4.20;99.90;;;;;;5045389;28;20204;-83
2022/01/26 09:13:32;;;;;;;35.77;16.60;;;4.20;99.90;;;;;;5031497;28;20174;-75
2022/01/26 09:16:04;;;;;;;33.33;16.13;;;4.20;99.90;;;;;;5030564;28;20170;-77
2022/01/26 09:18:41;;;;;;;36.53;17.20;;;4.20;99.90;;;;;;5030753;28;20206;-76
2022/01/26 09:21:06;;;;;;;39.93;18.33;;;4.20;99.90;;;;;;5031036;28;20212;-78
2022/01/26 09:23:33;;;;;;;38.77;18.23;;;4.20;99.90;;;;;;5037965;28;20181;-76
2022/01/26 09:26:00;;;;;;;39.17;18.27;;;4.20;99.90;;;;;;5028354;28;20202;-81
2022/01/26 09:28:31;;;;;;;39.00;17.83;;;4.30;99.90;;;;;;5030756;28;20193;-77
2022/01/26 09:31:01;;;;;;;38.47;17.23;;;4.30;99.90;;;;;;5026136;28;20178;-79
2022/01/26 09:33:27;;;;;;;38.70;18.07;;;4.30;99.90;;;;;;5033223;28;20212;-76
2022/01/26 09:35:52;;;;;;;39.27;17.93;;;4.30;99.90;;;;;;5027692;28;20182;-74
2022/01/26 09:38:20;;;;;;;35.43;16.93;;;4.30;99.90;;;;;;5029858;28;20185;-81
2022/01/26 09:40:51;;;;;;;39.43;18.40;;;4.30;99.90;;;;;;5032883;28;20276;-76
2022/01/26 09:43:20;;;;;;;37.40;17.93;;;4.30;99.90;;;;;;5031623;28;20193;-72
2022/01/26 09:45:48;;;;;;;34.37;17.30;;;4.30;99.90;;;;;;5030878;28;20241;-77
2022/01/26 09:48:14;;;;;;;37.33;16.77;;;4.30;99.90;;;;;;5032375;28;20178;-79
2022/01/26 09:50:43;;;;;;;34.37;16.37;;;4.30;99.90;;;;;;5034648;28;20289;-72
2022/01/26 09:53:22;;;;;;;35.43;15.77;;;4.30;99.90;;;;;;5026807;28;20267;-76
2022/01/26 09:55:49;;;;;;;36.87;17.47;;;4.30;99.90;;;;;;5034627;28;20178;-72
2022/01/26 09:58:15;;;;;;;42.93;18.87;;;4.30;99.90;;;;;;5047668;28;20181;-79
2022/01/26 10:00:41;;;;;;;42.23;18.20;;;4.30;99.90;;;;;;5027187;28;20439;-71
2022/01/26 10:03:07;;;;;;;39.53;16.67;;;4.30;99.90;;;;;;5027561;28;20177;-75
2022/01/26 10:05:44;;;;;;;39.73;17.80;;;4.30;99.90;;;;;;5033281;28;20645;-72
2022/01/26 10:08:25;;;;;;;41.90;18.63;;;4.30;99.90;;;;;;5027757;28;20234;-80
2022/01/26 10:19:27;;;;;;;36.10;15.63;;;4.20;99.90;;;;;;5033151;28;20228;-78
2022/01/26 10:21:58;;;;;;;34.67;15.27;;;4.20;99.90;;;;;;5035154;28;20209;-81
2022/01/26 10:24:33;;;;;;;32.97;14.67;;;4.20;99.90;;;;;;5031077;28;20190;-82
2022/01/26 10:27:02;;;;;;;33.97;14.87;;;4.30;99.90;;;;;;5028724;28;20208;-82
2022/01/26 10:29:33;;;;;;;32.43;14.73;;;4.30;99.90;;;;;;5033724;28;20181;-74
2022/01/26 10:32:12;;;;;;;30.10;14.70;;;4.30;99.90;;;;;;5034889;28;20243;-80
2022/01/26 10:34:38;;;;;;;38.03;16.07;;;4.30;99.90;;;;;;5035409;28;20205;-76
2022/01/26 10:37:04;;;;;;;38.73;17.10;;;4.30;99.90;;;;;;5031006;28;20264;-82
2022/01/26 10:39:37;;;;;;;38.77;16.87;;;4.30;99.90;;;;;;5035482;28;20202;-75
2022/01/26 10:42:09;;;;;;;31.37;14.57;;;4.30;99.90;;;;;;5031976;28;20253;-78
2022/01/26 10:47:34;;;;;;;33.43;15.23;;;4.20;99.90;;;;;;5031045;28;20236;-76
2022/01/26 10:52:38;;;;;;;36.33;15.40;;;4.20;99.90;;;;;;5031424;28;20200;-79
2022/01/26 10:55:08;;;;;;;36.37;16.50;;;4.20;99.90;;;;;;5036259;28;20461;-72
2022/01/26 10:57:35;;;;;;;33.07;14.97;;;4.20;99.90;;;;;;5046299;28;20200;-76
2022/01/26 11:00:02;;;;;;;38.13;15.73;;;4.20;99.90;;;;;;5027603;28;20213;-80
2022/01/26 11:02:33;;;;;;;37.43;15.90;;;4.20;99.90;;;;;;5031942;28;20240;-75
2022/01/26 11:05:01;;;;;;;41.37;17.13;;;4.20;99.90;;;;;;5029927;28;20182;-75
2022/01/26 11:07:45;;;;;;;37.20;16.90;;;4.20;99.90;;;;;;5031598;28;20183;-79
2022/01/26 11:10:12;;;;;;;32.93;14.57;;;4.20;99.90;;;;;;5033888;28;20323;-77
2022/01/26 11:12:40;;;;;;;35.17;15.87;;;4.20;99.90;;;;;;5032287;28;20197;-73
2022/01/26 11:15:07;;;;;;;33.80;15.37;;;4.30;99.90;;;;;;5044076;28;20269;-77
2022/01/26 11:17:36;;;;;;;33.80;15.00;;;4.30;99.90;;;;;;5031966;28;20187;-69
2022/01/26 11:20:30;;;;;;;31.23;14.90;;;4.30;99.90;;;;;;5027570;28;20201;-78
2022/01/26 11:23:03;;;;;;;32.93;15.03;;;4.30;99.90;;;;;;5032152;28;20178;-69
2022/01/26 11:25:45;;;;;;;29.70;13.67;;;4.30;99.90;;;;;;5026364;28;20208;-68
2022/01/26 11:28:24;;;;;;;30.50;13.97;;;4.30;99.90;;;;;;5033709;28;20180;-83
2022/01/26 11:30:52;;;;;;;32.77;15.70;;;4.30;99.90;;;;;;5030952;28;20290;-76
2022/01/26 11:33:21;;;;;;;28.03;14.53;;;4.30;99.90;;;;;;5032147;28;20182;-77
2022/01/26 11:35:51;;;;;;;30.70;14.33;;;4.30;99.90;;;;;;5035034;28;20189;-74
2022/01/26 11:39:14;;;;;;;27.90;14.13;;;4.40;99.90;;;;;;5026133;28;20206;-79
2022/01/26 11:47:30;;;;;;;24.23;12.77;;;4.40;99.90;;;;;;5026349;28;20185;-71
2022/01/26 11:50:19;;;;;;;27.97;13.70;;;4.40;99.90;;;;;;5029715;28;21262;-73
2022/01/26 11:52:57;;;;;;;29.10;14.20;;;4.50;99.90;;;;;;5027293;28;20191;-75
2022/01/26 11:55:32;;;;;;;26.30;13.17;;;4.50;99.90;;;;;;5033174;28;20181;-74
2022/01/26 11:58:27;;;;;;;27.00;13.70;;;4.50;99.90;;;;;;5028535;28;20201;-82
2022/01/26 12:03:57;;;;;;;23.57;12.13;;;4.60;99.90;;;;;;5032047;28;20297;-72
2022/01/26 12:06:31;;;;;;;22.90;12.13;;;4.60;99.90;;;;;;5029902;28;20451;-71
2022/01/26 12:09:00;;;;;;;24.83;13.13;;;4.60;99.90;;;;;;5033600;28;20240;-77
2022/01/26 12:11:29;;;;;;;24.67;12.93;;;4.60;99.90;;;;;;5030390;28;20275;-75
2022/01/26 12:14:05;;;;;;;23.43;13.23;;;4.60;99.90;;;;;;5029516;28;20202;-74
2022/01/26 12:16:40;;;;;;;26.17;12.90;;;4.70;99.90;;;;;;5028764;28;20271;-73
2022/01/26 12:43:36;;;;;;;25.20;11.83;;;4.90;99.90;;;;;;5027596;28;20219;-73
2022/01/26 12:46:03;;;;;;;23.03;11.30;;;5.00;99.90;;;;;;5025772;28;20178;-72
2022/01/26 12:48:30;;;;;;;24.27;11.83;;;5.00;99.90;;;;;;5027307;28;20177;-71
2022/01/26 12:50:58;;;;;;;22.97;11.80;;;5.00;99.90;;;;;;5026043;28;20222;-74
2022/01/26 12:53:32;;;;;;;21.53;10.90;;;5.00;99.90;;;;;;5025112;28;20182;-73
2022/01/26 12:56:00;;;;;;;25.80;11.93;;;5.10;99.90;;;;;;5041022;28;20202;-73
2022/01/26 12:58:35;;;;;;;20.50;11.37;;;5.10;99.90;;;;;;5029768;28;20261;-69
2022/01/26 13:01:07;;;;;;;21.00;10.17;;;5.10;99.90;;;;;;5028714;28;20411;-72
2022/01/26 13:03:34;;;;;;;20.40;10.67;;;5.10;99.90;;;;;;5029507;28;20221;-73
2022/01/26 13:06:14;;;;;;;19.70;10.63;;;5.10;99.90;;;;;;5030308;28;20180;-71
2022/01/26 13:08:49;;;;;;;17.90;9.60;;;5.10;99.90;;;;;;5031328;28;20177;-71
2022/01/26 13:11:34;;;;;;;17.53;10.03;;;5.10;99.90;;;;;;5034594;28;20180;-72
2022/01/26 13:14:13;;;;;;;21.50;10.80;;;5.10;99.90;;;;;;5024947;28;20182;-73
2022/01/26 13:16:46;;;;;;;22.97;11.90;;;5.10;99.90;;;;;;5031821;28;20223;-73
2022/01/26 13:27:16;;;;;;;19.83;10.57;;;5.10;99.90;;;;;;5028816;28;20205;-70
2022/01/26 13:32:41;;;;;;;22.83;11.70;;;5.10;99.90;;;;;;5030959;28;20209;-73
2022/01/26 13:51:18;;;;;;;25.23;12.73;;;5.10;99.90;;;;;;5030057;28;20273;-71
2022/01/26 13:56:18;;;;;;;23.80;13.17;;;5.10;99.90;;;;;;5028582;28;20248;-71
2022/01/26 14:01:19;;;;;;;27.90;14.47;;;5.10;99.90;;;;;;5026888;28;20309;-72
2022/01/26 14:03:49;;;;;;;27.40;14.40;;;5.10;99.90;;;;;;5030373;28;20261;-72
2022/01/26 14:06:17;;;;;;;26.30;14.10;;;5.10;99.90;;;;;;5031488;28;20196;-72
2022/01/26 14:08:43;;;;;;;26.17;15.03;;;5.10;99.90;;;;;;5027758;28;20202;-70
2022/01/26 14:11:11;;;;;;;33.10;16.77;;;5.10;99.90;;;;;;5027493;28;20191;-71
2022/01/26 14:13:37;;;;;;;28.77;15.73;;;5.10;99.90;;;;;;5028088;28;20304;-74
2022/01/26 14:16:09;;;;;;;28.77;16.03;;;5.10;99.90;;;;;;5030202;28;20186;-74
2022/01/26 14:21:22;;;;;;;28.90;15.43;;;5.10;99.90;;;;;;5029081;28;20273;-70
2022/01/26 14:26:21;;;;;;;27.73;14.47;;;5.10;99.90;;;;;;5030027;28;20174;-69
2022/01/26 14:28:50;;;;;;;28.77;14.80;;;5.10;99.90;;;;;;5029850;28;20189;-71
2022/01/26 14:36:25;;;;;;;31.87;16.17;;;5.00;99.90;;;;;;5028973;28;20198;-70
2022/01/26 15:08:46;;;;;;;30.27;15.57;;;5.00;99.90;;;;;;5031129;28;20172;-69
2022/01/26 15:41:09;;;;;;;27.20;14.90;;;4.90;99.90;;;;;;5033434;28;20224;-72
2022/01/26 16:07:25;;;;;;;27.90;13.93;;;4.90;99.90;;;;;;5014908;28;20214;-71
2022/01/26 16:19:39;;;;;;;31.97;15.47;;;4.80;99.90;;;;;;5028280;28;20484;-70
2022/01/26 17:47:25;;;;;;;32.13;14.90;;;4.50;99.90;;;;;;5030436;28;20211;-70
2022/01/26 18:16:55;;;;;;;23.07;11.77;;;4.60;99.90;;;;;;5037496;28;20458;-71
2022/01/26 18:33:15;;;;;;;19.20;10.33;;;4.60;99.90;;;;;;5030505;28;20181;-67
2022/01/26 18:49:37;;;;;;;14.20;8.53;;;4.60;99.90;;;;;;5031873;28;20170;-72
2022/01/26 18:52:05;;;;;;;17.50;9.10;;;4.60;99.90;;;;;;5037455;28;20206;-70
2022/01/26 18:54:37;;;;;;;16.73;9.60;;;4.60;99.90;;;;;;5042839;28;20190;-74
2022/01/26 18:57:06;;;;;;;20.10;10.20;;;4.60;99.90;;;;;;5032565;28;20252;-68
2022/01/26 18:59:34;;;;;;;17.53;9.87;;;4.60;99.90;;;;;;5029673;28;20217;-68
2022/01/26 19:02:03;;;;;;;16.47;9.30;;;4.60;99.90;;;;;;5028644;28;20185;-71
2022/01/26 19:04:40;;;;;;;21.30;11.47;;;4.60;99.90;;;;;;5027607;28;20178;-72
2022/01/26 19:07:15;;;;;;;18.70;9.80;;;4.60;99.90;;;;;;5040629;28;20189;-73
2022/01/26 19:09:44;;;;;;;17.70;10.03;;;4.60;99.90;;;;;;5029499;28;20177;-72
2022/01/26 19:12:14;;;;;;;20.53;11.07;;;4.60;99.90;;;;;;5033968;28;20192;-71
2022/01/26 19:14:46;;;;;;;21.53;11.30;;;4.60;99.90;;;;;;5043688;28;20170;-68
2022/01/26 19:17:21;;;;;;;22.77;12.17;;;4.60;99.90;;;;;;5031874;28;20173;-69
2022/01/26 19:22:50;;;;;;;18.57;10.23;;;4.60;99.90;;;;;;5031202;28;20228;-71
2022/01/26 19:25:22;;;;;;;19.70;11.10;;;4.60;99.90;;;;;;5034497;28;20228;-70
2022/01/26 19:52:07;;;;;;;24.03;11.87;;;4.50;99.90;;;;;;5030670;28;20229;-72
2022/01/26 19:54:34;;;;;;;22.33;11.50;;;4.50;99.90;;;;;;5027840;28;20253;-71
2022/01/26 19:57:03;;;;;;;24.17;12.20;;;4.50;99.90;;;;;;5032033;28;20182;-69
2022/01/26 19:59:29;;;;;;;24.03;12.17;;;4.50;99.90;;;;;;5027180;28;20272;-69
2022/01/26 20:01:57;;;;;;;22.67;11.60;;;4.50;99.90;;;;;;5033852;28;20265;-72
2022/01/26 20:04:28;;;;;;;20.50;11.37;;;4.50;99.90;;;;;;5030825;28;20193;-71
2022/01/26 20:06:53;;;;;;;22.40;11.10;;;4.50;99.90;;;;;;5030432;28;20181;-73
2022/01/26 20:09:26;;;;;;;24.57;12.03;;;4.50;99.90;;;;;;5029635;28;20194;-73
2022/01/26 20:11:56;;;;;;;23.60;12.00;;;4.50;99.90;;;;;;5025844;28;20189;-71
2022/01/26 20:14:27;;;;;;;20.27;10.67;;;4.50;99.90;;;;;;5030001;28;20174;-71
2022/01/26 20:16:52;;;;;;;20.40;11.53;;;4.50;99.90;;;;;;5031540;28;20174;-73
2022/01/26 20:19:23;;;;;;;21.37;10.90;;;4.50;99.90;;;;;;5033552;28;20215;-73